sensor_id;sensor_type;location;lat;lon;timestamp;temperature;humidity
13591;DHT22;6866;50.778;7.206;2023-02-04T00:00:12;9.70;99.90
13591;DHT22;6866;50.778;7.206;2023-02-04T00:02:39;9.70;99.90
13591;DHT22;6866;50.778;7.206;2023-02-04T00:05:05;9.70;99.90
13591;DHT22;6866;50.778;7.206;2023-02-04T00:07:31;9.70;99.90
13591;DHT22;6866;50.778;7.206;2023-02-04T00:09:56;9.70;99.90
13591;DHT22;6866;50.778;7.206;2023-02-04T00:12:22;9.70;99.90
13591;DHT22;6866;50.778;7.206;2023-02-04T00:14:47;9.70;99.90
13591;DHT22;6866;50.778;7.206;2023-02-04T00:17:13;9.70;99.90
13591;DHT22;6866;50.778;7.206;2023-02-04T00:19:39;9.70;99.90
13591;DHT22;6866;50.778;7.206;2023-02-04T00:22:05;9.70;99.90
13591;DHT22;6866;50.778;7.206;2023-02-04T00:24:33;9.70;99.90
13591;DHT22;6866;50.778;7.206;2023-02-04T00:26:58;9.60;99.90
13591;DHT22;6866;50.778;7.206;2023-02-04T00:29:24;9.60;99.90
13591;DHT22;6866;50.778;7.206;2023-02-04T00:31:49;9.70;99.90
13591;DHT22;6866;50.778;7.206;2023-02-04T00:34:15;9.70;99.90
13591;DHT22;6866;50.778;7.206;2023-02-04T00:36:42;9.70;99.90
13591;DHT22;6866;50.778;7.206;2023-02-04T00:39:08;9.70;99.90
13591;DHT22;6866;50.778;7.206;2023-02-04T00:41:33;9.60;99.90
13591;DHT22;6866;50.778;7.206;2023-02-04T00:43:59;9.60;99.90
13591;DHT22;6866;50.778;7.206;2023-02-04T00:46:24;9.60;99.90
13591;DHT22;6866;50.778;7.206;2023-02-04T00:48:50;9.50;99.90
13591;DHT22;6866;50.778;7.206;2023-02-04T00:51:15;9.60;99.90
13591;DHT22;6866;50.778;7.206;2023-02-04T00:53:41;9.60;99.90
13591;DHT22;6866;50.778;7.206;2023-02-04T00:56:06;9.50;99.90
13591;DHT22;6866;50.778;7.206;2023-02-04T00:58:32;9.50;99.90
13591;DHT22;6866;50.778;7.206;2023-02-04T01:00:57;9.50;99.90
13591;DHT22;6866;50.778;7.206;2023-02-04T01:03:23;9.60;99.90
13591;DHT22;6866;50.778;7.206;2023-02-04T01:05:48;9.50;99.90
13591;DHT22;6866;50.778;7.206;2023-02-04T01:08:14;9.50;99.90
13591;DHT22;6866;50.778;7.206;2023-02-04T01:10:40;9.50;99.90
13591;DHT22;6866;50.778;7.206;2023-02-04T01:13:05;9.50;99.90
13591;DHT22;6866;50.778;7.206;2023-02-04T01:15:33;9.50;99.90
13591;DHT22;6866;50.778;7.206;2023-02-04T01:17:58;9.40;99.90
13591;DHT22;6866;50.778;7.206;2023-02-04T01:20:24;9.40;99.90
13591;DHT22;6866;50.778;7.206;2023-02-04T01:22:50;9.50;99.90
13591;DHT22;6866;50.778;7.206;2023-02-04T01:25:15;9.50;99.90
13591;DHT22;6866;50.778;7.206;2023-02-04T01:27:42;9.50;99.90
13591;DHT22;6866;50.778;7.206;2023-02-04T01:30:08;9.50;99.90
13591;DHT22;6866;50.778;7.206;2023-02-04T01:32:34;9.60;99.90
13591;DHT22;6866;50.778;7.206;2023-02-04T01:34:59;9.50;99.90
13591;DHT22;6866;50.778;7.206;2023-02-04T01:37:25;9.50;99.90
13591;DHT22;6866;50.778;7.206;2023-02-04T01:39:50;9.40;99.90
13591;DHT22;6866;50.778;7.206;2023-02-04T01:42:16;9.40;99.90
13591;DHT22;6866;50.778;7.206;2023-02-04T01:44:42;9.40;99.90
13591;DHT22;6866;50.778;7.206;2023-02-04T01:47:08;9.50;99.90
13591;DHT22;6866;50.778;7.206;2023-02-04T01:49:34;9.40;99.90
13591;DHT22;6866;50.778;7.206;2023-02-04T01:52:00;9.50;99.90
13591;DHT22;6866;50.778;7.206;2023-02-04T01:54:26;9.50;99.90
13591;DHT22;6866;50.778;7.206;2023-02-04T01:56:52;9.50;99.90
13591;DHT22;6866;50.778;7.206;2023-02-04T01:59:19;9.50;99.90
13591;DHT22;6866;50.778;7.206;2023-02-04T02:04:31;9.50;99.90
13591;DHT22;6866;50.778;7.206;2023-02-04T02:06:59;9.50;99.90
13591;DHT22;6866;50.778;7.206;2023-02-04T02:09:26;9.50;99.90
13591;DHT22;6866;50.778;7.206;2023-02-04T02:11:53;9.40;99.90
13591;DHT22;6866;50.778;7.206;2023-02-04T02:14:18;9.50;99.90
13591;DHT22;6866;50.778;7.206;2023-02-04T02:16:44;9.40;99.90
13591;DHT22;6866;50.778;7.206;2023-02-04T02:19:14;9.40;99.90
13591;DHT22;6866;50.778;7.206;2023-02-04T02:21:46;9.40;99.90
13591;DHT22;6866;50.778;7.206;2023-02-04T02:24:24;9.50;99.90
13591;DHT22;6866;50.778;7.206;2023-02-04T02:26:51;9.40;99.90
13591;DHT22;6866;50.778;7.206;2023-02-04T02:29:17;9.40;99.90
13591;DHT22;6866;50.778;7.206;2023-02-04T02:31:43;9.50;99.90
13591;DHT22;6866;50.778;7.206;2023-02-04T02:34:08;9.50;99.90
13591;DHT22;6866;50.778;7.206;2023-02-04T02:36:34;9.50;99.90
13591;DHT22;6866;50.778;7.206;2023-02-04T02:39:00;9.40;99.90
13591;DHT22;6866;50.778;7.206;2023-02-04T02:41:25;9.40;99.90
13591;DHT22;6866;50.778;7.206;2023-02-04T02:43:51;9.40;99.90
13591;DHT22;6866;50.778;7.206;2023-02-04T02:46:16;9.30;99.90
13591;DHT22;6866;50.778;7.206;2023-02-04T02:48:42;9.40;99.90
13591;DHT22;6866;50.778;7.206;2023-02-04T02:51:08;9.30;99.90
13591;DHT22;6866;50.778;7.206;2023-02-04T02:53:33;9.30;99.90
13591;DHT22;6866;50.778;7.206;2023-02-04T02:55:59;9.30;99.90
13591;DHT22;6866;50.778;7.206;2023-02-04T02:58:31;9.40;99.90
13591;DHT22;6866;50.778;7.206;2023-02-04T03:00:59;9.30;99.90
13591;DHT22;6866;50.778;7.206;2023-02-04T03:03:33;9.30;99.90
13591;DHT22;6866;50.778;7.206;2023-02-04T03:06:07;9.30;99.90
13591;DHT22;6866;50.778;7.206;2023-02-04T03:08:34;9.30;99.90
13591;DHT22;6866;50.778;7.206;2023-02-04T03:11:00;9.20;99.90
13591;DHT22;6866;50.778;7.206;2023-02-04T03:13:26;9.20;99.90
13591;DHT22;6866;50.778;7.206;2023-02-04T03:15:51;9.30;99.90
13591;DHT22;6866;50.778;7.206;2023-02-04T03:18:18;9.30;99.90
13591;DHT22;6866;50.778;7.206;2023-02-04T03:20:45;9.30;99.90
13591;DHT22;6866;50.778;7.206;2023-02-04T03:23:12;9.30;99.90
13591;DHT22;6866;50.778;7.206;2023-02-04T03:25:37;9.10;99.90
13591;DHT22;6866;50.778;7.206;2023-02-04T03:28:03;9.20;99.90
13591;DHT22;6866;50.778;7.206;2023-02-04T03:30:29;9.10;99.90
13591;DHT22;6866;50.778;7.206;2023-02-04T03:32:55;9.10;99.90
13591;DHT22;6866;50.778;7.206;2023-02-04T03:35:20;9.00;99.90
13591;DHT22;6866;50.778;7.206;2023-02-04T03:37:46;9.20;99.90
13591;DHT22;6866;50.778;7.206;2023-02-04T03:40:12;8.90;99.90
13591;DHT22;6866;50.778;7.206;2023-02-04T03:42:37;8.90;99.90
13591;DHT22;6866;50.778;7.206;2023-02-04T03:45:03;9.00;99.90
13591;DHT22;6866;50.778;7.206;2023-02-04T03:47:29;9.10;99.90
13591;DHT22;6866;50.778;7.206;2023-02-04T03:49:54;9.10;99.90
13591;DHT22;6866;50.778;7.206;2023-02-04T03:52:20;9.10;99.90
13591;DHT22;6866;50.778;7.206;2023-02-04T03:54:45;9.00;99.90
13591;DHT22;6866;50.778;7.206;2023-02-04T03:57:11;9.10;99.90
13591;DHT22;6866;50.778;7.206;2023-02-04T03:59:37;8.70;99.90
13591;DHT22;6866;50.778;7.206;2023-02-04T04:02:03;9.00;99.90
13591;DHT22;6866;50.778;7.206;2023-02-04T04:04:29;9.10;99.90
13591;DHT22;6866;50.778;7.206;2023-02-04T04:06:54;9.00;99.90
13591;DHT22;6866;50.778;7.206;2023-02-04T04:09:20;9.00;99.90
13591;DHT22;6866;50.778;7.206;2023-02-04T04:11:45;9.10;99.90
13591;DHT22;6866;50.778;7.206;2023-02-04T04:14:11;9.00;99.90
13591;DHT22;6866;50.778;7.206;2023-02-04T04:16:36;9.00;99.90
13591;DHT22;6866;50.778;7.206;2023-02-04T04:19:02;9.10;99.90
13591;DHT22;6866;50.778;7.206;2023-02-04T04:21:27;9.00;99.90
13591;DHT22;6866;50.778;7.206;2023-02-04T04:23:53;9.00;99.90
13591;DHT22;6866;50.778;7.206;2023-02-04T04:26:18;9.00;99.90
13591;DHT22;6866;50.778;7.206;2023-02-04T04:28:44;9.00;99.90
13591;DHT22;6866;50.778;7.206;2023-02-04T04:31:10;8.90;99.90
13591;DHT22;6866;50.778;7.206;2023-02-04T04:33:35;8.90;99.90
13591;DHT22;6866;50.778;7.206;2023-02-04T04:36:01;8.90;99.90
13591;DHT22;6866;50.778;7.206;2023-02-04T04:38:26;8.90;99.90
13591;DHT22;6866;50.778;7.206;2023-02-04T04:40:52;8.90;99.90
13591;DHT22;6866;50.778;7.206;2023-02-04T04:43:17;9.00;99.90
13591;DHT22;6866;50.778;7.206;2023-02-04T04:45:43;9.00;99.90
13591;DHT22;6866;50.778;7.206;2023-02-04T04:48:09;8.90;99.90
13591;DHT22;6866;50.778;7.206;2023-02-04T04:50:34;9.00;99.90
13591;DHT22;6866;50.778;7.206;2023-02-04T04:53:00;9.00;99.90
13591;DHT22;6866;50.778;7.206;2023-02-04T04:55:25;9.00;99.90
13591;DHT22;6866;50.778;7.206;2023-02-04T04:57:51;8.90;99.90
13591;DHT22;6866;50.778;7.206;2023-02-04T05:00:18;8.90;99.90
13591;DHT22;6866;50.778;7.206;2023-02-04T05:02:44;8.90;99.90
13591;DHT22;6866;50.778;7.206;2023-02-04T05:05:10;8.80;99.90
13591;DHT22;6866;50.778;7.206;2023-02-04T05:07:36;8.80;99.90
13591;DHT22;6866;50.778;7.206;2023-02-04T05:10:02;8.80;99.90
13591;DHT22;6866;50.778;7.206;2023-02-04T05:12:28;9.00;99.90
13591;DHT22;6866;50.778;7.206;2023-02-04T05:14:54;8.80;99.90
13591;DHT22;6866;50.778;7.206;2023-02-04T05:17:19;8.90;99.90
13591;DHT22;6866;50.778;7.206;2023-02-04T05:19:45;8.80;99.90
13591;DHT22;6866;50.778;7.206;2023-02-04T05:22:10;8.80;99.90
13591;DHT22;6866;50.778;7.206;2023-02-04T05:24:36;8.60;99.90
13591;DHT22;6866;50.778;7.206;2023-02-04T05:27:02;8.70;99.90
13591;DHT22;6866;50.778;7.206;2023-02-04T05:29:27;8.80;99.90
13591;DHT22;6866;50.778;7.206;2023-02-04T05:31:53;8.80;99.90
13591;DHT22;6866;50.778;7.206;2023-02-04T05:34:18;8.80;99.90
13591;DHT22;6866;50.778;7.206;2023-02-04T05:36:44;8.80;99.90
13591;DHT22;6866;50.778;7.206;2023-02-04T05:39:09;8.80;99.90
13591;DHT22;6866;50.778;7.206;2023-02-04T05:41:35;8.80;99.90
13591;DHT22;6866;50.778;7.206;2023-02-04T05:44:00;8.80;99.90
13591;DHT22;6866;50.778;7.206;2023-02-04T05:46:26;8.80;99.90
13591;DHT22;6866;50.778;7.206;2023-02-04T05:48:51;8.80;99.90
13591;DHT22;6866;50.778;7.206;2023-02-04T05:51:17;8.70;99.90
13591;DHT22;6866;50.778;7.206;2023-02-04T05:53:42;8.70;99.90
13591;DHT22;6866;50.778;7.206;2023-02-04T05:56:08;8.70;99.90
13591;DHT22;6866;50.778;7.206;2023-02-04T05:58:33;8.60;99.90
13591;DHT22;6866;50.778;7.206;2023-02-04T06:01:03;8.60;99.90
13591;DHT22;6866;50.778;7.206;2023-02-04T06:03:29;8.60;99.90
13591;DHT22;6866;50.778;7.206;2023-02-04T06:05:55;8.60;99.90
13591;DHT22;6866;50.778;7.206;2023-02-04T06:08:21;8.60;99.90
13591;DHT22;6866;50.778;7.206;2023-02-04T06:10:46;8.60;99.90
13591;DHT22;6866;50.778;7.206;2023-02-04T06:13:12;8.60;99.90
13591;DHT22;6866;50.778;7.206;2023-02-04T06:15:38;8.60;99.90
13591;DHT22;6866;50.778;7.206;2023-02-04T06:18:03;8.50;99.90
13591;DHT22;6866;50.778;7.206;2023-02-04T06:20:29;8.50;99.90
13591;DHT22;6866;50.778;7.206;2023-02-04T06:22:54;8.50;99.90
13591;DHT22;6866;50.778;7.206;2023-02-04T06:25:20;8.60;99.90
13591;DHT22;6866;50.778;7.206;2023-02-04T06:27:46;8.70;99.90
13591;DHT22;6866;50.778;7.206;2023-02-04T06:30:12;8.70;99.90
13591;DHT22;6866;50.778;7.206;2023-02-04T06:32:38;8.60;99.90
13591;DHT22;6866;50.778;7.206;2023-02-04T06:35:04;8.60;99.90
13591;DHT22;6866;50.778;7.206;2023-02-04T06:37:30;8.70;99.90
13591;DHT22;6866;50.778;7.206;2023-02-04T06:39:55;8.70;99.90
13591;DHT22;6866;50.778;7.206;2023-02-04T06:42:22;8.70;99.90
13591;DHT22;6866;50.778;7.206;2023-02-04T06:44:48;8.60;99.90
13591;DHT22;6866;50.778;7.206;2023-02-04T06:47:13;8.50;99.90
13591;DHT22;6866;50.778;7.206;2023-02-04T06:49:39;8.50;99.90
13591;DHT22;6866;50.778;7.206;2023-02-04T06:52:04;8.50;99.90
13591;DHT22;6866;50.778;7.206;2023-02-04T06:54:30;8.60;99.90
13591;DHT22;6866;50.778;7.206;2023-02-04T06:56:55;8.70;99.90
13591;DHT22;6866;50.778;7.206;2023-02-04T06:59:28;8.60;99.90
13591;DHT22;6866;50.778;7.206;2023-02-04T07:01:56;8.70;99.90
13591;DHT22;6866;50.778;7.206;2023-02-04T07:04:22;8.70;99.90
13591;DHT22;6866;50.778;7.206;2023-02-04T07:06:47;8.70;99.90
13591;DHT22;6866;50.778;7.206;2023-02-04T07:09:13;8.70;99.90
13591;DHT22;6866;50.778;7.206;2023-02-04T07:11:38;8.70;99.90
13591;DHT22;6866;50.778;7.206;2023-02-04T07:14:04;8.70;99.90
13591;DHT22;6866;50.778;7.206;2023-02-04T07:16:29;8.60;99.90
13591;DHT22;6866;50.778;7.206;2023-02-04T07:18:55;8.70;99.90
13591;DHT22;6866;50.778;7.206;2023-02-04T07:21:20;8.60;99.90
13591;DHT22;6866;50.778;7.206;2023-02-04T07:23:46;8.60;99.90
13591;DHT22;6866;50.778;7.206;2023-02-04T07:26:12;8.70;99.90
13591;DHT22;6866;50.778;7.206;2023-02-04T07:28:37;8.70;99.90
13591;DHT22;6866;50.778;7.206;2023-02-04T07:31:05;8.60;99.90
13591;DHT22;6866;50.778;7.206;2023-02-04T07:33:31;8.70;99.90
13591;DHT22;6866;50.778;7.206;2023-02-04T07:35:56;8.80;99.90
13591;DHT22;6866;50.778;7.206;2023-02-04T07:38:22;8.80;99.90
13591;DHT22;6866;50.778;7.206;2023-02-04T07:40:47;8.90;99.90
13591;DHT22;6866;50.778;7.206;2023-02-04T07:43:13;8.90;99.90
13591;DHT22;6866;50.778;7.206;2023-02-04T07:45:38;8.90;99.90
13591;DHT22;6866;50.778;7.206;2023-02-04T07:48:04;8.90;99.90
13591;DHT22;6866;50.778;7.206;2023-02-04T07:50:30;8.90;99.90
13591;DHT22;6866;50.778;7.206;2023-02-04T07:52:55;8.90;99.90
13591;DHT22;6866;50.778;7.206;2023-02-04T07:55:20;9.00;99.90
13591;DHT22;6866;50.778;7.206;2023-02-04T07:57:46;9.00;99.90
13591;DHT22;6866;50.778;7.206;2023-02-04T08:00:12;9.10;99.90
13591;DHT22;6866;50.778;7.206;2023-02-04T08:02:39;9.20;99.90
13591;DHT22;6866;50.778;7.206;2023-02-04T08:05:06;9.20;99.90
13591;DHT22;6866;50.778;7.206;2023-02-04T08:07:32;9.40;99.90
13591;DHT22;6866;50.778;7.206;2023-02-04T08:09:58;9.40;99.90
13591;DHT22;6866;50.778;7.206;2023-02-04T08:12:23;9.40;99.90
13591;DHT22;6866;50.778;7.206;2023-02-04T08:14:49;9.40;99.90
13591;DHT22;6866;50.778;7.206;2023-02-04T08:17:14;9.30;99.90
13591;DHT22;6866;50.778;7.206;2023-02-04T08:19:40;9.30;99.90
13591;DHT22;6866;50.778;7.206;2023-02-04T08:22:05;9.30;99.90
13591;DHT22;6866;50.778;7.206;2023-02-04T08:24:31;9.20;99.90
13591;DHT22;6866;50.778;7.206;2023-02-04T08:26:56;9.30;99.90
13591;DHT22;6866;50.778;7.206;2023-02-04T08:29:23;9.30;99.90
13591;DHT22;6866;50.778;7.206;2023-02-04T08:31:50;9.30;99.90
13591;DHT22;6866;50.778;7.206;2023-02-04T08:34:16;9.40;99.90
13591;DHT22;6866;50.778;7.206;2023-02-04T08:36:41;9.30;99.90
13591;DHT22;6866;50.778;7.206;2023-02-04T08:39:09;9.30;99.90
13591;DHT22;6866;50.778;7.206;2023-02-04T08:41:34;9.30;99.90
13591;DHT22;6866;50.778;7.206;2023-02-04T08:44:00;9.40;99.90
13591;DHT22;6866;50.778;7.206;2023-02-04T08:46:25;9.50;99.90
13591;DHT22;6866;50.778;7.206;2023-02-04T08:48:51;9.50;99.90
13591;DHT22;6866;50.778;7.206;2023-02-04T08:51:16;9.60;99.90
13591;DHT22;6866;50.778;7.206;2023-02-04T08:53:42;9.50;99.90
13591;DHT22;6866;50.778;7.206;2023-02-04T08:56:07;9.60;99.90
13591;DHT22;6866;50.778;7.206;2023-02-04T08:58:34;9.70;99.90
13591;DHT22;6866;50.778;7.206;2023-02-04T09:01:00;9.80;99.90
13591;DHT22;6866;50.778;7.206;2023-02-04T09:03:26;9.70;99.90
13591;DHT22;6866;50.778;7.206;2023-02-04T09:05:52;9.50;99.90
13591;DHT22;6866;50.778;7.206;2023-02-04T09:08:17;9.60;99.90
13591;DHT22;6866;50.778;7.206;2023-02-04T09:10:43;9.70;99.90
13591;DHT22;6866;50.778;7.206;2023-02-04T09:13:08;9.70;99.90
13591;DHT22;6866;50.778;7.206;2023-02-04T09:15:36;9.70;99.90
13591;DHT22;6866;50.778;7.206;2023-02-04T09:18:01;9.60;99.90
13591;DHT22;6866;50.778;7.206;2023-02-04T09:20:36;9.70;99.90
13591;DHT22;6866;50.778;7.206;2023-02-04T09:23:03;9.70;99.90
13591;DHT22;6866;50.778;7.206;2023-02-04T09:25:31;9.80;99.90
13591;DHT22;6866;50.778;7.206;2023-02-04T09:27:57;9.80;99.90
13591;DHT22;6866;50.778;7.206;2023-02-04T09:30:22;9.80;99.90
13591;DHT22;6866;50.778;7.206;2023-02-04T09:32:48;9.80;99.90
13591;DHT22;6866;50.778;7.206;2023-02-04T09:35:13;9.90;99.90
13591;DHT22;6866;50.778;7.206;2023-02-04T09:37:39;9.90;99.90
13591;DHT22;6866;50.778;7.206;2023-02-04T09:40:05;9.90;99.90
13591;DHT22;6866;50.778;7.206;2023-02-04T09:42:30;10.00;99.90
13591;DHT22;6866;50.778;7.206;2023-02-04T09:44:56;10.00;99.90
13591;DHT22;6866;50.778;7.206;2023-02-04T09:47:22;10.00;99.90
13591;DHT22;6866;50.778;7.206;2023-02-04T09:49:50;9.90;99.90
13591;DHT22;6866;50.778;7.206;2023-02-04T09:52:17;9.80;99.90
13591;DHT22;6866;50.778;7.206;2023-02-04T09:54:43;9.90;99.90
13591;DHT22;6866;50.778;7.206;2023-02-04T09:57:18;10.00;99.90
13591;DHT22;6866;50.778;7.206;2023-02-04T09:59:44;9.80;99.90
13591;DHT22;6866;50.778;7.206;2023-02-04T10:02:22;9.90;99.90
13591;DHT22;6866;50.778;7.206;2023-02-04T10:04:50;10.00;99.90
13591;DHT22;6866;50.778;7.206;2023-02-04T10:07:18;10.00;99.90
13591;DHT22;6866;50.778;7.206;2023-02-04T10:09:46;10.00;99.90
13591;DHT22;6866;50.778;7.206;2023-02-04T10:12:13;9.90;99.90
13591;DHT22;6866;50.778;7.206;2023-02-04T10:14:39;10.00;99.90
13591;DHT22;6866;50.778;7.206;2023-02-04T10:17:06;10.10;99.90
13591;DHT22;6866;50.778;7.206;2023-02-04T10:19:32;10.10;99.90
13591;DHT22;6866;50.778;7.206;2023-02-04T10:21:58;10.10;99.90
13591;DHT22;6866;50.778;7.206;2023-02-04T10:24:25;10.20;99.90
13591;DHT22;6866;50.778;7.206;2023-02-04T10:26:52;10.20;99.90
13591;DHT22;6866;50.778;7.206;2023-02-04T10:29:20;10.40;99.90
13591;DHT22;6866;50.778;7.206;2023-02-04T10:31:48;10.50;99.90
13591;DHT22;6866;50.778;7.206;2023-02-04T10:36:47;10.60;99.90
13591;DHT22;6866;50.778;7.206;2023-02-04T10:39:18;10.70;99.90
13591;DHT22;6866;50.778;7.206;2023-02-04T10:41:57;10.80;99.90
13591;DHT22;6866;50.778;7.206;2023-02-04T10:44:31;10.80;99.90
13591;DHT22;6866;50.778;7.206;2023-02-04T10:47:20;10.80;99.90
13591;DHT22;6866;50.778;7.206;2023-02-04T10:50:01;10.90;99.90
13591;DHT22;6866;50.778;7.206;2023-02-04T10:52:37;10.90;99.90
13591;DHT22;6866;50.778;7.206;2023-02-04T10:55:05;10.90;99.90
13591;DHT22;6866;50.778;7.206;2023-02-04T10:57:34;10.80;99.90
13591;DHT22;6866;50.778;7.206;2023-02-04T11:00:04;10.80;99.90
13591;DHT22;6866;50.778;7.206;2023-02-04T11:05:12;10.90;99.90
13591;DHT22;6866;50.778;7.206;2023-02-04T11:07:38;11.10;99.90
13591;DHT22;6866;50.778;7.206;2023-02-04T11:10:04;11.20;99.90
13591;DHT22;6866;50.778;7.206;2023-02-04T11:12:44;11.30;99.90
13591;DHT22;6866;50.778;7.206;2023-02-04T11:18:04;11.70;99.90
13591;DHT22;6866;50.778;7.206;2023-02-04T11:20:31;11.60;99.90
13591;DHT22;6866;50.778;7.206;2023-02-04T11:23:13;11.60;99.90
13591;DHT22;6866;50.778;7.206;2023-02-04T11:25:39;11.70;99.90
13591;DHT22;6866;50.778;7.206;2023-02-04T11:28:24;11.70;99.90
13591;DHT22;6866;50.778;7.206;2023-02-04T11:31:01;11.50;99.90
13591;DHT22;6866;50.778;7.206;2023-02-04T11:33:40;11.20;99.90
13591;DHT22;6866;50.778;7.206;2023-02-04T11:36:09;11.30;99.90
13591;DHT22;6866;50.778;7.206;2023-02-04T11:38:35;11.40;99.90
13591;DHT22;6866;50.778;7.206;2023-02-04T11:41:01;11.70;99.90
13591;DHT22;6866;50.778;7.206;2023-02-04T11:43:27;11.90;99.90
13591;DHT22;6866;50.778;7.206;2023-02-04T11:46:16;12.20;99.90
13591;DHT22;6866;50.778;7.206;2023-02-04T11:48:42;12.30;99.90
13591;DHT22;6866;50.778;7.206;2023-02-04T11:51:13;12.20;99.90
13591;DHT22;6866;50.778;7.206;2023-02-04T11:53:39;12.00;99.90
13591;DHT22;6866;50.778;7.206;2023-02-04T11:56:05;11.80;99.90
13591;DHT22;6866;50.778;7.206;2023-02-04T11:58:31;11.90;99.90
13591;DHT22;6866;50.778;7.206;2023-02-04T12:00:57;11.70;99.90
13591;DHT22;6866;50.778;7.206;2023-02-04T12:05:49;11.70;99.90
13591;DHT22;6866;50.778;7.206;2023-02-04T12:11:02;11.70;99.90
13591;DHT22;6866;50.778;7.206;2023-02-04T12:13:28;11.60;99.90
13591;DHT22;6866;50.778;7.206;2023-02-04T12:16:04;11.50;99.90
13591;DHT22;6866;50.778;7.206;2023-02-04T12:18:33;11.50;99.90
13591;DHT22;6866;50.778;7.206;2023-02-04T12:20:59;11.50;99.90
13591;DHT22;6866;50.778;7.206;2023-02-04T12:23:27;11.50;99.90
13591;DHT22;6866;50.778;7.206;2023-02-04T12:25:53;11.50;99.90
13591;DHT22;6866;50.778;7.206;2023-02-04T12:28:19;11.50;99.90
13591;DHT22;6866;50.778;7.206;2023-02-04T12:30:45;11.60;99.90
13591;DHT22;6866;50.778;7.206;2023-02-04T12:33:11;11.70;99.90
13591;DHT22;6866;50.778;7.206;2023-02-04T12:35:37;11.70;99.90
13591;DHT22;6866;50.778;7.206;2023-02-04T12:38:02;11.60;99.90
13591;DHT22;6866;50.778;7.206;2023-02-04T12:40:28;11.70;99.90
13591;DHT22;6866;50.778;7.206;2023-02-04T12:42:54;11.70;99.90
13591;DHT22;6866;50.778;7.206;2023-02-04T12:45:20;11.60;99.90
13591;DHT22;6866;50.778;7.206;2023-02-04T12:47:46;11.70;99.90
13591;DHT22;6866;50.778;7.206;2023-02-04T12:50:14;11.60;99.90
13591;DHT22;6866;50.778;7.206;2023-02-04T12:52:39;11.40;99.90
13591;DHT22;6866;50.778;7.206;2023-02-04T12:55:07;11.50;99.90
13591;DHT22;6866;50.778;7.206;2023-02-04T12:57:33;11.50;99.90
13591;DHT22;6866;50.778;7.206;2023-02-04T12:59:59;11.50;99.90
13591;DHT22;6866;50.778;7.206;2023-02-04T13:02:26;11.50;99.90
13591;DHT22;6866;50.778;7.206;2023-02-04T13:04:53;11.50;99.90
13591;DHT22;6866;50.778;7.206;2023-02-04T13:07:18;11.50;99.90
13591;DHT22;6866;50.778;7.206;2023-02-04T13:09:44;11.40;99.90
13591;DHT22;6866;50.778;7.206;2023-02-04T13:12:10;11.40;99.90
13591;DHT22;6866;50.778;7.206;2023-02-04T13:14:38;11.50;99.90
13591;DHT22;6866;50.778;7.206;2023-02-04T13:17:04;11.50;99.90
13591;DHT22;6866;50.778;7.206;2023-02-04T13:19:30;11.50;99.90
13591;DHT22;6866;50.778;7.206;2023-02-04T13:21:57;11.40;99.90
13591;DHT22;6866;50.778;7.206;2023-02-04T13:24:22;11.40;99.90
13591;DHT22;6866;50.778;7.206;2023-02-04T13:26:48;11.40;99.50
13591;DHT22;6866;50.778;7.206;2023-02-04T13:29:13;11.50;99.90
13591;DHT22;6866;50.778;7.206;2023-02-04T13:31:39;11.60;99.90
13591;DHT22;6866;50.778;7.206;2023-02-04T13:34:04;11.60;99.90
13591;DHT22;6866;50.778;7.206;2023-02-04T13:36:30;11.50;99.90
13591;DHT22;6866;50.778;7.206;2023-02-04T13:38:55;11.50;99.90
13591;DHT22;6866;50.778;7.206;2023-02-04T13:41:24;11.40;99.90
13591;DHT22;6866;50.778;7.206;2023-02-04T13:43:50;11.50;99.90
13591;DHT22;6866;50.778;7.206;2023-02-04T13:46:15;11.60;99.90
13591;DHT22;6866;50.778;7.206;2023-02-04T13:48:41;11.50;99.60
13591;DHT22;6866;50.778;7.206;2023-02-04T13:51:06;11.50;99.90
13591;DHT22;6866;50.778;7.206;2023-02-04T13:53:32;11.50;99.90
13591;DHT22;6866;50.778;7.206;2023-02-04T13:55:57;11.50;99.90
13591;DHT22;6866;50.778;7.206;2023-02-04T13:58:23;11.50;99.90
13591;DHT22;6866;50.778;7.206;2023-02-04T14:00:49;11.60;99.70
13591;DHT22;6866;50.778;7.206;2023-02-04T14:03:14;11.60;99.90
13591;DHT22;6866;50.778;7.206;2023-02-04T14:05:40;11.70;99.20
13591;DHT22;6866;50.778;7.206;2023-02-04T14:08:06;11.70;99.50
13591;DHT22;6866;50.778;7.206;2023-02-04T14:10:31;11.70;99.70
13591;DHT22;6866;50.778;7.206;2023-02-04T14:12:57;11.80;98.10
13591;DHT22;6866;50.778;7.206;2023-02-04T14:15:23;11.80;97.70
13591;DHT22;6866;50.778;7.206;2023-02-04T14:17:49;11.90;98.40
13591;DHT22;6866;50.778;7.206;2023-02-04T14:20:14;11.80;98.10
13591;DHT22;6866;50.778;7.206;2023-02-04T14:22:40;11.90;98.00
13591;DHT22;6866;50.778;7.206;2023-02-04T14:25:06;11.90;96.90
13591;DHT22;6866;50.778;7.206;2023-02-04T14:27:32;11.90;96.20
13591;DHT22;6866;50.778;7.206;2023-02-04T14:29:59;11.80;96.10
13591;DHT22;6866;50.778;7.206;2023-02-04T14:32:25;11.80;96.10
13591;DHT22;6866;50.778;7.206;2023-02-04T14:34:50;11.80;96.80
13591;DHT22;6866;50.778;7.206;2023-02-04T14:37:16;11.80;96.30
13591;DHT22;6866;50.778;7.206;2023-02-04T14:39:41;11.70;96.90
13591;DHT22;6866;50.778;7.206;2023-02-04T14:42:07;11.70;96.90
13591;DHT22;6866;50.778;7.206;2023-02-04T14:44:32;11.80;96.10
13591;DHT22;6866;50.778;7.206;2023-02-04T14:46:58;11.60;97.00
13591;DHT22;6866;50.778;7.206;2023-02-04T14:49:23;11.60;96.40
13591;DHT22;6866;50.778;7.206;2023-02-04T14:51:49;11.60;94.80
13591;DHT22;6866;50.778;7.206;2023-02-04T14:54:14;11.50;94.60
13591;DHT22;6866;50.778;7.206;2023-02-04T14:56:40;11.60;93.10
13591;DHT22;6866;50.778;7.206;2023-02-04T14:59:06;11.60;93.70
13591;DHT22;6866;50.778;7.206;2023-02-04T15:01:32;11.50;95.50
13591;DHT22;6866;50.778;7.206;2023-02-04T15:03:58;11.60;96.80
13591;DHT22;6866;50.778;7.206;2023-02-04T15:06:24;11.60;96.50
13591;DHT22;6866;50.778;7.206;2023-02-04T15:08:49;11.60;95.10
13591;DHT22;6866;50.778;7.206;2023-02-04T15:11:15;11.50;95.00
13591;DHT22;6866;50.778;7.206;2023-02-04T15:13:41;11.50;96.00
13591;DHT22;6866;50.778;7.206;2023-02-04T15:16:06;11.50;95.80
13591;DHT22;6866;50.778;7.206;2023-02-04T15:18:32;11.40;94.30
13591;DHT22;6866;50.778;7.206;2023-02-04T15:20:57;11.30;94.60
13591;DHT22;6866;50.778;7.206;2023-02-04T15:23:23;11.30;94.20
13591;DHT22;6866;50.778;7.206;2023-02-04T15:25:48;11.20;95.00
13591;DHT22;6866;50.778;7.206;2023-02-04T15:28:16;11.10;94.60
13591;DHT22;6866;50.778;7.206;2023-02-04T15:30:41;11.10;94.40
13591;DHT22;6866;50.778;7.206;2023-02-04T15:33:07;11.00;94.50
13591;DHT22;6866;50.778;7.206;2023-02-04T15:35:32;11.10;94.10
13591;DHT22;6866;50.778;7.206;2023-02-04T15:37:58;11.00;93.10
13591;DHT22;6866;50.778;7.206;2023-02-04T15:40:23;10.90;94.00
13591;DHT22;6866;50.778;7.206;2023-02-04T15:42:49;10.90;94.30
13591;DHT22;6866;50.778;7.206;2023-02-04T15:45:17;10.80;94.40
13591;DHT22;6866;50.778;7.206;2023-02-04T15:47:42;10.80;95.10
13591;DHT22;6866;50.778;7.206;2023-02-04T15:50:08;10.70;95.40
13591;DHT22;6866;50.778;7.206;2023-02-04T15:52:35;10.70;95.60
13591;DHT22;6866;50.778;7.206;2023-02-04T15:55:01;10.60;96.50
13591;DHT22;6866;50.778;7.206;2023-02-04T15:57:26;10.50;97.40
13591;DHT22;6866;50.778;7.206;2023-02-04T15:59:52;10.50;97.60
13591;DHT22;6866;50.778;7.206;2023-02-04T16:02:17;10.40;98.10
13591;DHT22;6866;50.778;7.206;2023-02-04T16:04:43;10.30;98.40